To NAV CANADA Home Page Login to a new session Search on AWWS site Feedback and Comments Disclaimer Vers la page française équivalente Tips FAQ What's new on the site To the Forecasts and Observations / NOTAM section To "File a Flight Plan" website Publications and other links Update of the User's profile FIC Telephone Numbers My Weather Data Folder Route Weather Data Regional Weather Data Local Weather Data To the Forecasts and Observations / NOTAM section
Request Generated 05/03/2016 at 12:30:28 UTC . Weather information available at that time is displayed.

METAR/TAF

RED DEER/RED DEER REGIONAL/AB    

METAR CYQF 031200Z 21003KT 15SM FEW280 06/01 A3001 RMK CI1 SLP168=
METAR CYQF 031100Z 35004KT 260V360 15SM FEW280 06/01 A3000 RMK CI1
SLP165=
METAR CYQF 031000Z 00000KT 15SM SKC 11/02 A3000 RMK SLP158 DENSITY
ALT 3100FT=

TAF CYQF 031138Z 0312/0324 35008KT P6SM SKC
BECMG 0320/0322 16010KT
RMK NXT FCST BY 031800Z=
Your time UTC time
Weather data provided by Environment Canada and NAV CANADA